sensor_id;sensor_type;location;lat;lon;timestamp;temperature;humidity
9201;DHT22;4635;48.686;9.008;2023-02-15T00:01:38;-0.50;99.90
9201;DHT22;4635;48.686;9.008;2023-02-15T00:04:09;-0.50;99.90
9201;DHT22;4635;48.686;9.008;2023-02-15T00:06:40;-0.50;99.90
9201;DHT22;4635;48.686;9.008;2023-02-15T00:09:11;-0.60;99.90
9201;DHT22;4635;48.686;9.008;2023-02-15T00:11:43;-0.60;99.90
9201;DHT22;4635;48.686;9.008;2023-02-15T00:14:18;-0.60;99.90
9201;DHT22;4635;48.686;9.008;2023-02-15T00:16:53;-0.60;99.90
9201;DHT22;4635;48.686;9.008;2023-02-15T00:19:27;-0.70;99.90
9201;DHT22;4635;48.686;9.008;2023-02-15T00:21:57;-0.60;99.90
9201;DHT22;4635;48.686;9.008;2023-02-15T00:24:27;-0.70;99.90
9201;DHT22;4635;48.686;9.008;2023-02-15T00:27:00;-0.70;99.90
9201;DHT22;4635;48.686;9.008;2023-02-15T00:29:31;-0.70;99.90
9201;DHT22;4635;48.686;9.008;2023-02-15T00:32:04;-0.70;99.90
9201;DHT22;4635;48.686;9.008;2023-02-15T00:34:35;-0.70;99.90
9201;DHT22;4635;48.686;9.008;2023-02-15T00:37:07;-0.70;99.90
9201;DHT22;4635;48.686;9.008;2023-02-15T00:39:37;-0.70;99.90
9201;DHT22;4635;48.686;9.008;2023-02-15T00:42:10;-0.70;99.90
9201;DHT22;4635;48.686;9.008;2023-02-15T00:44:40;-0.70;99.90
9201;DHT22;4635;48.686;9.008;2023-02-15T00:47:13;-0.70;99.90
9201;DHT22;4635;48.686;9.008;2023-02-15T00:49:46;-0.70;99.90
9201;DHT22;4635;48.686;9.008;2023-02-15T00:52:16;-0.70;99.90
9201;DHT22;4635;48.686;9.008;2023-02-15T00:54:46;-0.80;99.90
9201;DHT22;4635;48.686;9.008;2023-02-15T00:57:17;-0.60;99.90
9201;DHT22;4635;48.686;9.008;2023-02-15T00:59:47;-0.80;99.90
9201;DHT22;4635;48.686;9.008;2023-02-15T01:02:20;-0.80;99.90
9201;DHT22;4635;48.686;9.008;2023-02-15T01:04:49;-0.80;99.90
9201;DHT22;4635;48.686;9.008;2023-02-15T01:07:19;-0.90;99.90
9201;DHT22;4635;48.686;9.008;2023-02-15T01:09:51;-0.90;99.90
9201;DHT22;4635;48.686;9.008;2023-02-15T01:12:23;-1.00;99.90
9201;DHT22;4635;48.686;9.008;2023-02-15T01:15:05;-1.00;99.90
9201;DHT22;4635;48.686;9.008;2023-02-15T01:17:41;-1.00;99.90
9201;DHT22;4635;48.686;9.008;2023-02-15T01:20:13;-1.00;99.90
9201;DHT22;4635;48.686;9.008;2023-02-15T01:22:44;-1.00;99.90
9201;DHT22;4635;48.686;9.008;2023-02-15T01:25:17;-1.00;99.90
9201;DHT22;4635;48.686;9.008;2023-02-15T01:27:48;-1.00;99.90
9201;DHT22;4635;48.686;9.008;2023-02-15T01:30:18;-1.00;99.90
9201;DHT22;4635;48.686;9.008;2023-02-15T01:32:53;-1.00;99.90
9201;DHT22;4635;48.686;9.008;2023-02-15T01:35:58;-1.00;99.90
9201;DHT22;4635;48.686;9.008;2023-02-15T01:38:29;-1.00;99.90
9201;DHT22;4635;48.686;9.008;2023-02-15T01:41:02;-1.10;99.90
9201;DHT22;4635;48.686;9.008;2023-02-15T01:43:50;-1.00;99.90
9201;DHT22;4635;48.686;9.008;2023-02-15T01:46:27;-0.90;99.90
9201;DHT22;4635;48.686;9.008;2023-02-15T01:49:13;-1.10;99.90
9201;DHT22;4635;48.686;9.008;2023-02-15T01:51:49;-1.10;99.90
9201;DHT22;4635;48.686;9.008;2023-02-15T01:54:31;-1.10;99.90
9201;DHT22;4635;48.686;9.008;2023-02-15T01:57:07;-1.10;99.90
9201;DHT22;4635;48.686;9.008;2023-02-15T01:59:45;-1.10;99.90
9201;DHT22;4635;48.686;9.008;2023-02-15T02:02:17;-1.20;99.90
9201;DHT22;4635;48.686;9.008;2023-02-15T02:04:59;-0.70;99.90
9201;DHT22;4635;48.686;9.008;2023-02-15T02:07:38;-1.20;99.90
9201;DHT22;4635;48.686;9.008;2023-02-15T02:10:15;-1.20;99.90
9201;DHT22;4635;48.686;9.008;2023-02-15T02:12:48;-0.90;99.90
9201;DHT22;4635;48.686;9.008;2023-02-15T02:15:38;-1.20;99.90
9201;DHT22;4635;48.686;9.008;2023-02-15T02:18:22;-1.20;99.90
9201;DHT22;4635;48.686;9.008;2023-02-15T02:24:23;-1.30;99.90
9201;DHT22;4635;48.686;9.008;2023-02-15T02:27:29;-1.20;99.90
9201;DHT22;4635;48.686;9.008;2023-02-15T02:33:47;-1.40;99.90
9201;DHT22;4635;48.686;9.008;2023-02-15T02:36:27;-1.40;99.90
9201;DHT22;4635;48.686;9.008;2023-02-15T02:39:12;-1.50;99.90
9201;DHT22;4635;48.686;9.008;2023-02-15T02:41:54;-1.40;99.90
9201;DHT22;4635;48.686;9.008;2023-02-15T02:44:31;-1.40;99.90
9201;DHT22;4635;48.686;9.008;2023-02-15T02:47:14;-1.40;99.90
9201;DHT22;4635;48.686;9.008;2023-02-15T02:49:51;-1.50;99.90
9201;DHT22;4635;48.686;9.008;2023-02-15T02:52:40;-1.40;99.90
9201;DHT22;4635;48.686;9.008;2023-02-15T02:55:14;-1.40;99.90
9201;DHT22;4635;48.686;9.008;2023-02-15T02:57:51;-0.70;99.90
9201;DHT22;4635;48.686;9.008;2023-02-15T03:00:23;-1.40;99.90
9201;DHT22;4635;48.686;9.008;2023-02-15T03:03:02;-1.40;99.90
9201;DHT22;4635;48.686;9.008;2023-02-15T03:05:43;-1.50;99.90
9201;DHT22;4635;48.686;9.008;2023-02-15T03:08:15;-1.50;99.90
9201;DHT22;4635;48.686;9.008;2023-02-15T03:10:51;-1.50;99.90
9201;DHT22;4635;48.686;9.008;2023-02-15T03:13:24;-1.60;99.90
9201;DHT22;4635;48.686;9.008;2023-02-15T03:15:56;-1.60;99.90
9201;DHT22;4635;48.686;9.008;2023-02-15T03:18:45;-1.60;99.90
9201;DHT22;4635;48.686;9.008;2023-02-15T03:21:33;-1.60;99.90
9201;DHT22;4635;48.686;9.008;2023-02-15T03:24:10;-1.60;99.90
9201;DHT22;4635;48.686;9.008;2023-02-15T03:26:48;-1.50;99.90
9201;DHT22;4635;48.686;9.008;2023-02-15T03:29:22;-1.50;99.90
9201;DHT22;4635;48.686;9.008;2023-02-15T03:32:04;-1.60;99.90
9201;DHT22;4635;48.686;9.008;2023-02-15T03:34:35;-1.60;99.90
9201;DHT22;4635;48.686;9.008;2023-02-15T03:37:13;-1.60;99.90
9201;DHT22;4635;48.686;9.008;2023-02-15T03:39:51;-1.60;99.90
9201;DHT22;4635;48.686;9.008;2023-02-15T03:42:29;-1.60;99.90
9201;DHT22;4635;48.686;9.008;2023-02-15T03:45:05;-1.70;99.90
9201;DHT22;4635;48.686;9.008;2023-02-15T03:47:38;-1.60;99.90
9201;DHT22;4635;48.686;9.008;2023-02-15T03:50:15;-1.60;99.90
9201;DHT22;4635;48.686;9.008;2023-02-15T03:53:11;-1.70;99.90
9201;DHT22;4635;48.686;9.008;2023-02-15T03:55:47;-1.70;99.90
9201;DHT22;4635;48.686;9.008;2023-02-15T03:58:18;-1.80;99.90
9201;DHT22;4635;48.686;9.008;2023-02-15T04:01:14;-1.80;99.90
9201;DHT22;4635;48.686;9.008;2023-02-15T04:04:05;-1.90;99.90
9201;DHT22;4635;48.686;9.008;2023-02-15T04:06:41;-2.00;99.90
9201;DHT22;4635;48.686;9.008;2023-02-15T04:09:19;-2.00;99.90
9201;DHT22;4635;48.686;9.008;2023-02-15T04:12:05;-1.80;99.90
9201;DHT22;4635;48.686;9.008;2023-02-15T04:14:37;-1.90;99.90
9201;DHT22;4635;48.686;9.008;2023-02-15T04:17:26;-1.80;99.90
9201;DHT22;4635;48.686;9.008;2023-02-15T04:19:56;-1.80;99.90
9201;DHT22;4635;48.686;9.008;2023-02-15T04:22:44;-1.80;99.90
9201;DHT22;4635;48.686;9.008;2023-02-15T04:25:32;-1.80;99.90
9201;DHT22;4635;48.686;9.008;2023-02-15T04:28:06;-1.90;99.90
9201;DHT22;4635;48.686;9.008;2023-02-15T04:31:36;-1.90;99.90
9201;DHT22;4635;48.686;9.008;2023-02-15T04:35:08;-2.00;99.90
9201;DHT22;4635;48.686;9.008;2023-02-15T04:38:17;-1.90;99.90
9201;DHT22;4635;48.686;9.008;2023-02-15T04:41:01;-1.90;99.90
9201;DHT22;4635;48.686;9.008;2023-02-15T04:43:33;-2.00;99.90
9201;DHT22;4635;48.686;9.008;2023-02-15T04:46:04;-2.00;99.90
9201;DHT22;4635;48.686;9.008;2023-02-15T04:48:35;-2.00;99.90
9201;DHT22;4635;48.686;9.008;2023-02-15T04:51:09;-2.00;99.90
9201;DHT22;4635;48.686;9.008;2023-02-15T04:53:47;-2.00;99.90
9201;DHT22;4635;48.686;9.008;2023-02-15T04:56:25;-2.10;99.90
9201;DHT22;4635;48.686;9.008;2023-02-15T04:59:01;-2.10;99.90
9201;DHT22;4635;48.686;9.008;2023-02-15T05:01:32;-2.10;73.00
9201;DHT22;4635;48.686;9.008;2023-02-15T05:04:03;-1.90;99.90
9201;DHT22;4635;48.686;9.008;2023-02-15T05:06:35;-2.10;78.10
9201;DHT22;4635;48.686;9.008;2023-02-15T05:09:06;-2.00;70.90
9201;DHT22;4635;48.686;9.008;2023-02-15T05:11:50;-1.90;75.10
9201;DHT22;4635;48.686;9.008;2023-02-15T05:14:23;-2.10;80.90
9201;DHT22;4635;48.686;9.008;2023-02-15T05:16:55;-2.00;99.90
9201;DHT22;4635;48.686;9.008;2023-02-15T05:19:29;-2.00;96.30
9201;DHT22;4635;48.686;9.008;2023-02-15T05:22:03;-2.00;99.90
9201;DHT22;4635;48.686;9.008;2023-02-15T05:24:33;-2.00;99.90
9201;DHT22;4635;48.686;9.008;2023-02-15T05:27:22;-2.00;99.90
9201;DHT22;4635;48.686;9.008;2023-02-15T05:30:10;-2.10;99.90
9201;DHT22;4635;48.686;9.008;2023-02-15T05:32:41;-1.70;99.90
9201;DHT22;4635;48.686;9.008;2023-02-15T05:35:18;-2.20;99.90
9201;DHT22;4635;48.686;9.008;2023-02-15T05:37:48;-2.20;99.90
9201;DHT22;4635;48.686;9.008;2023-02-15T05:40:19;-2.20;99.90
9201;DHT22;4635;48.686;9.008;2023-02-15T05:42:51;-2.20;99.90
9201;DHT22;4635;48.686;9.008;2023-02-15T05:45:21;-2.30;96.70
9201;DHT22;4635;48.686;9.008;2023-02-15T05:47:55;-2.30;83.80
9201;DHT22;4635;48.686;9.008;2023-02-15T05:50:26;-2.20;97.30
9201;DHT22;4635;48.686;9.008;2023-02-15T05:53:01;-2.30;91.40
9201;DHT22;4635;48.686;9.008;2023-02-15T05:55:34;-2.30;93.40
9201;DHT22;4635;48.686;9.008;2023-02-15T05:58:12;-2.20;90.50
9201;DHT22;4635;48.686;9.008;2023-02-15T06:00:53;-2.20;99.90
9201;DHT22;4635;48.686;9.008;2023-02-15T06:03:24;-2.20;99.90
9201;DHT22;4635;48.686;9.008;2023-02-15T06:05:55;-2.20;99.90
9201;DHT22;4635;48.686;9.008;2023-02-15T06:08:26;-2.20;97.10
9201;DHT22;4635;48.686;9.008;2023-02-15T06:10:57;-2.20;99.90
9201;DHT22;4635;48.686;9.008;2023-02-15T06:13:36;-2.20;90.80
9201;DHT22;4635;48.686;9.008;2023-02-15T06:16:11;-2.20;99.90
9201;DHT22;4635;48.686;9.008;2023-02-15T06:18:43;-2.20;99.90
9201;DHT22;4635;48.686;9.008;2023-02-15T06:21:17;-2.20;99.90
9201;DHT22;4635;48.686;9.008;2023-02-15T06:23:51;-2.20;99.90
9201;DHT22;4635;48.686;9.008;2023-02-15T06:26:39;-2.30;99.90
9201;DHT22;4635;48.686;9.008;2023-02-15T06:29:16;-2.20;99.90
9201;DHT22;4635;48.686;9.008;2023-02-15T06:31:55;-2.30;74.40
9201;DHT22;4635;48.686;9.008;2023-02-15T06:34:31;-2.30;99.90
9201;DHT22;4635;48.686;9.008;2023-02-15T06:37:17;-2.30;83.40
9201;DHT22;4635;48.686;9.008;2023-02-15T06:40:00;-2.30;99.90
9201;DHT22;4635;48.686;9.008;2023-02-15T06:42:45;-2.20;99.90
9201;DHT22;4635;48.686;9.008;2023-02-15T06:45:34;-2.30;95.30
9201;DHT22;4635;48.686;9.008;2023-02-15T06:48:05;-2.20;99.90
9201;DHT22;4635;48.686;9.008;2023-02-15T06:50:39;-2.20;99.90
9201;DHT22;4635;48.686;9.008;2023-02-15T06:53:11;-2.30;90.30
9201;DHT22;4635;48.686;9.008;2023-02-15T06:55:42;-2.30;55.20
9201;DHT22;4635;48.686;9.008;2023-02-15T06:58:16;-2.20;57.30
9201;DHT22;4635;48.686;9.008;2023-02-15T07:00:52;-2.20;76.10
9201;DHT22;4635;48.686;9.008;2023-02-15T07:03:24;-2.20;76.50
9201;DHT22;4635;48.686;9.008;2023-02-15T07:06:03;-2.10;56.70
9201;DHT22;4635;48.686;9.008;2023-02-15T07:08:46;-2.20;20.40
9201;DHT22;4635;48.686;9.008;2023-02-15T07:11:23;-2.10;17.50
9201;DHT22;4635;48.686;9.008;2023-02-15T07:14:18;-2.10;36.00
9201;DHT22;4635;48.686;9.008;2023-02-15T07:17:00;-2.00;49.10
9201;DHT22;4635;48.686;9.008;2023-02-15T07:19:49;-1.90;78.60
9201;DHT22;4635;48.686;9.008;2023-02-15T07:22:20;-1.80;46.80
9201;DHT22;4635;48.686;9.008;2023-02-15T07:24:51;-1.70;52.40
9201;DHT22;4635;48.686;9.008;2023-02-15T07:27:27;-1.70;12.10
9201;DHT22;4635;48.686;9.008;2023-02-15T07:30:07;-1.60;47.00
9201;DHT22;4635;48.686;9.008;2023-02-15T07:32:56;-1.50;77.50
9201;DHT22;4635;48.686;9.008;2023-02-15T07:35:48;-1.40;22.70
9201;DHT22;4635;48.686;9.008;2023-02-15T07:38:32;-1.30;19.60
9201;DHT22;4635;48.686;9.008;2023-02-15T07:41:13;-1.20;42.80
9201;DHT22;4635;48.686;9.008;2023-02-15T07:44:09;-1.20;44.90
9201;DHT22;4635;48.686;9.008;2023-02-15T07:46:54;-1.00;1.00
9201;DHT22;4635;48.686;9.008;2023-02-15T07:49:31;-0.90;1.00
9201;DHT22;4635;48.686;9.008;2023-02-15T07:52:05;-0.80;1.00
9201;DHT22;4635;48.686;9.008;2023-02-15T07:54:37;-0.60;34.30
9201;DHT22;4635;48.686;9.008;2023-02-15T07:57:10;-0.30;50.30
9201;DHT22;4635;48.686;9.008;2023-02-15T07:59:45;0.10;99.90
9201;DHT22;4635;48.686;9.008;2023-02-15T08:02:52;-0.10;99.90
9201;DHT22;4635;48.686;9.008;2023-02-15T08:06:05;0.40;99.90
9201;DHT22;4635;48.686;9.008;2023-02-15T08:08:50;0.90;99.90
9201;DHT22;4635;48.686;9.008;2023-02-15T08:11:30;1.20;99.90
9201;DHT22;4635;48.686;9.008;2023-02-15T08:14:23;1.70;99.90
9201;DHT22;4635;48.686;9.008;2023-02-15T08:17:11;2.30;99.90
9201;DHT22;4635;48.686;9.008;2023-02-15T08:23:21;3.30;98.00
9201;DHT22;4635;48.686;9.008;2023-02-15T08:26:12;4.00;86.10
9201;DHT22;4635;48.686;9.008;2023-02-15T08:28:58;4.50;60.30
9201;DHT22;4635;48.686;9.008;2023-02-15T08:31:38;4.90;44.30
9201;DHT22;4635;48.686;9.008;2023-02-15T08:34:19;4.90;33.40
9201;DHT22;4635;48.686;9.008;2023-02-15T08:36:58;5.50;30.00
9201;DHT22;4635;48.686;9.008;2023-02-15T08:39:55;7.20;9.60
9201;DHT22;4635;48.686;9.008;2023-02-15T08:42:35;8.60;1.00
9201;DHT22;4635;48.686;9.008;2023-02-15T08:45:23;9.50;1.00
9201;DHT22;4635;48.686;9.008;2023-02-15T08:48:17;10.90;1.00
9201;DHT22;4635;48.686;9.008;2023-02-15T08:51:04;11.70;1.00
9201;DHT22;4635;48.686;9.008;2023-02-15T08:53:43;12.00;1.00
9201;DHT22;4635;48.686;9.008;2023-02-15T08:56:30;12.80;1.00
9201;DHT22;4635;48.686;9.008;2023-02-15T08:59:16;13.00;1.00
9201;DHT22;4635;48.686;9.008;2023-02-15T09:01:57;13.40;1.00
9201;DHT22;4635;48.686;9.008;2023-02-15T09:04:28;14.10;1.00
9201;DHT22;4635;48.686;9.008;2023-02-15T09:07:18;13.90;1.00
9201;DHT22;4635;48.686;9.008;2023-02-15T09:10:20;13.00;1.00
9201;DHT22;4635;48.686;9.008;2023-02-15T09:13:19;14.50;1.00
9201;DHT22;4635;48.686;9.008;2023-02-15T09:16:15;14.70;1.00
9201;DHT22;4635;48.686;9.008;2023-02-15T09:18:56;14.70;1.00
9201;DHT22;4635;48.686;9.008;2023-02-15T09:21:36;15.40;1.00
9201;DHT22;4635;48.686;9.008;2023-02-15T09:24:12;15.20;1.00
9201;DHT22;4635;48.686;9.008;2023-02-15T09:26:53;14.80;1.00
9201;DHT22;4635;48.686;9.008;2023-02-15T09:29:31;15.30;1.00
9201;DHT22;4635;48.686;9.008;2023-02-15T09:32:13;15.70;1.00
9201;DHT22;4635;48.686;9.008;2023-02-15T09:37:47;18.00;1.00
9201;DHT22;4635;48.686;9.008;2023-02-15T09:40:23;15.60;1.00
9201;DHT22;4635;48.686;9.008;2023-02-15T09:43:26;13.20;1.00
9201;DHT22;4635;48.686;9.008;2023-02-15T09:46:35;11.90;1.00
9201;DHT22;4635;48.686;9.008;2023-02-15T09:49:22;9.70;1.00
9201;DHT22;4635;48.686;9.008;2023-02-15T09:52:26;8.40;1.00
9201;DHT22;4635;48.686;9.008;2023-02-15T09:55:28;7.80;1.00
9201;DHT22;4635;48.686;9.008;2023-02-15T09:58:19;8.70;1.00
9201;DHT22;4635;48.686;9.008;2023-02-15T10:01:16;7.20;1.00
9201;DHT22;4635;48.686;9.008;2023-02-15T10:04:23;8.10;1.00
9201;DHT22;4635;48.686;9.008;2023-02-15T10:07:17;7.10;1.00
9201;DHT22;4635;48.686;9.008;2023-02-15T10:10:27;8.70;1.00
9201;DHT22;4635;48.686;9.008;2023-02-15T10:13:44;12.60;1.00
9201;DHT22;4635;48.686;9.008;2023-02-15T10:16:48;15.50;1.00
9201;DHT22;4635;48.686;9.008;2023-02-15T10:26:18;18.80;1.00
9201;DHT22;4635;48.686;9.008;2023-02-15T10:29:08;20.50;1.00
9201;DHT22;4635;48.686;9.008;2023-02-15T10:32:23;21.70;1.00
9201;DHT22;4635;48.686;9.008;2023-02-15T10:35:25;23.20;1.00
9201;DHT22;4635;48.686;9.008;2023-02-15T10:38:21;23.80;1.00
9201;DHT22;4635;48.686;9.008;2023-02-15T10:41:28;22.60;1.00
9201;DHT22;4635;48.686;9.008;2023-02-15T10:44:29;22.00;1.00
9201;DHT22;4635;48.686;9.008;2023-02-15T10:47:32;18.50;1.00
9201;DHT22;4635;48.686;9.008;2023-02-15T10:50:47;15.40;1.00
9201;DHT22;4635;48.686;9.008;2023-02-15T10:53:49;12.10;1.00
9201;DHT22;4635;48.686;9.008;2023-02-15T10:56:50;10.40;1.00
9201;DHT22;4635;48.686;9.008;2023-02-15T10:59:54;10.10;1.00
9201;DHT22;4635;48.686;9.008;2023-02-15T11:03:01;9.50;1.00
9201;DHT22;4635;48.686;9.008;2023-02-15T11:05:52;9.50;1.00
9201;DHT22;4635;48.686;9.008;2023-02-15T11:09:21;9.60;1.00
9201;DHT22;4635;48.686;9.008;2023-02-15T11:12:55;9.60;1.00
9201;DHT22;4635;48.686;9.008;2023-02-15T11:15:28;10.00;1.00
9201;DHT22;4635;48.686;9.008;2023-02-15T11:18:14;9.90;1.00
9201;DHT22;4635;48.686;9.008;2023-02-15T11:21:02;10.00;1.00
9201;DHT22;4635;48.686;9.008;2023-02-15T11:23:45;10.00;1.00
9201;DHT22;4635;48.686;9.008;2023-02-15T11:26:43;10.20;1.00
9201;DHT22;4635;48.686;9.008;2023-02-15T11:29:52;10.40;1.00
9201;DHT22;4635;48.686;9.008;2023-02-15T11:32:57;10.40;1.00
9201;DHT22;4635;48.686;9.008;2023-02-15T11:39:02;10.80;1.00
9201;DHT22;4635;48.686;9.008;2023-02-15T12:14:46;11.80;1.00
9201;DHT22;4635;48.686;9.008;2023-02-15T12:17:49;11.80;1.00
9201;DHT22;4635;48.686;9.008;2023-02-15T12:24:31;11.80;1.00
9201;DHT22;4635;48.686;9.008;2023-02-15T12:27:32;12.00;1.00
9201;DHT22;4635;48.686;9.008;2023-02-15T12:40:22;12.20;1.00
9201;DHT22;4635;48.686;9.008;2023-02-15T12:43:32;12.20;1.00
9201;DHT22;4635;48.686;9.008;2023-02-15T12:46:41;12.40;1.00
9201;DHT22;4635;48.686;9.008;2023-02-15T12:49:42;13.20;1.00
9201;DHT22;4635;48.686;9.008;2023-02-15T12:53:20;14.20;1.00
9201;DHT22;4635;48.686;9.008;2023-02-15T13:02:52;27.90;1.00
9201;DHT22;4635;48.686;9.008;2023-02-15T13:05:44;28.70;1.00
9201;DHT22;4635;48.686;9.008;2023-02-15T13:10:17;28.40;1.00
9201;DHT22;4635;48.686;9.008;2023-02-15T13:12:22;29.30;1.00
9201;DHT22;4635;48.686;9.008;2023-02-15T13:15:27;30.60;1.00
9201;DHT22;4635;48.686;9.008;2023-02-15T13:18:34;31.40;1.00
9201;DHT22;4635;48.686;9.008;2023-02-15T13:21:37;30.40;1.00
9201;DHT22;4635;48.686;9.008;2023-02-15T13:24:42;29.10;1.00
9201;DHT22;4635;48.686;9.008;2023-02-15T13:27:56;28.20;1.00
9201;DHT22;4635;48.686;9.008;2023-02-15T14:38:42;14.10;1.00
9201;DHT22;4635;48.686;9.008;2023-02-15T14:42:24;13.60;1.00
9201;DHT22;4635;48.686;9.008;2023-02-15T14:45:30;13.30;1.00
9201;DHT22;4635;48.686;9.008;2023-02-15T14:49:56;12.70;1.00
9201;DHT22;4635;48.686;9.008;2023-02-15T15:09:31;12.50;1.00
9201;DHT22;4635;48.686;9.008;2023-02-15T15:12:44;12.40;1.00
9201;DHT22;4635;48.686;9.008;2023-02-15T15:15:53;12.40;1.00
9201;DHT22;4635;48.686;9.008;2023-02-15T15:19:56;12.20;1.00
9201;DHT22;4635;48.686;9.008;2023-02-15T15:22:20;12.10;1.00
9201;DHT22;4635;48.686;9.008;2023-02-15T15:35:27;11.40;1.00
9201;DHT22;4635;48.686;9.008;2023-02-15T15:38:40;11.60;1.00
9201;DHT22;4635;48.686;9.008;2023-02-15T15:56:00;10.80;1.00
9201;DHT22;4635;48.686;9.008;2023-02-15T15:59:12;11.20;1.00
9201;DHT22;4635;48.686;9.008;2023-02-15T16:02:23;11.00;1.00
9201;DHT22;4635;48.686;9.008;2023-02-15T16:05:35;10.90;1.00
9201;DHT22;4635;48.686;9.008;2023-02-15T16:08:30;10.80;1.00
9201;DHT22;4635;48.686;9.008;2023-02-15T16:21:21;9.90;1.00
9201;DHT22;4635;48.686;9.008;2023-02-15T16:24:25;9.70;1.00
9201;DHT22;4635;48.686;9.008;2023-02-15T16:27:34;9.50;1.00
9201;DHT22;4635;48.686;9.008;2023-02-15T16:30:42;9.30;1.00
9201;DHT22;4635;48.686;9.008;2023-02-15T16:33:40;9.20;1.00
9201;DHT22;4635;48.686;9.008;2023-02-15T16:39:45;9.20;1.00
9201;DHT22;4635;48.686;9.008;2023-02-15T16:42:36;8.80;1.00
9201;DHT22;4635;48.686;9.008;2023-02-15T16:45:15;9.90;1.00
9201;DHT22;4635;48.686;9.008;2023-02-15T16:48:30;8.60;1.00
9201;DHT22;4635;48.686;9.008;2023-02-15T16:51:20;8.40;1.00
9201;DHT22;4635;48.686;9.008;2023-02-15T16:54:25;8.30;1.00
9201;DHT22;4635;48.686;9.008;2023-02-15T17:00:56;8.10;1.00
9201;DHT22;4635;48.686;9.008;2023-02-15T17:03:52;8.00;1.00
9201;DHT22;4635;48.686;9.008;2023-02-15T17:07:00;7.90;1.00
9201;DHT22;4635;48.686;9.008;2023-02-15T17:09:57;7.80;1.00
9201;DHT22;4635;48.686;9.008;2023-02-15T17:12:56;7.90;1.00
9201;DHT22;4635;48.686;9.008;2023-02-15T17:19:14;7.70;1.00
9201;DHT22;4635;48.686;9.008;2023-02-15T17:22:03;7.60;1.00
9201;DHT22;4635;48.686;9.008;2023-02-15T17:24:42;7.60;99.90
9201;DHT22;4635;48.686;9.008;2023-02-15T17:27:23;7.60;99.90
9201;DHT22;4635;48.686;9.008;2023-02-15T17:30:00;7.50;99.90
9201;DHT22;4635;48.686;9.008;2023-02-15T17:33:19;7.30;99.90
9201;DHT22;4635;48.686;9.008;2023-02-15T17:36:14;7.10;1.00
9201;DHT22;4635;48.686;9.008;2023-02-15T17:39:05;7.00;1.00
9201;DHT22;4635;48.686;9.008;2023-02-15T17:41:37;6.80;1.00
9201;DHT22;4635;48.686;9.008;2023-02-15T17:44:11;6.70;1.00
9201;DHT22;4635;48.686;9.008;2023-02-15T17:47:15;6.60;1.00
9201;DHT22;4635;48.686;9.008;2023-02-15T17:50:10;6.30;1.00
9201;DHT22;4635;48.686;9.008;2023-02-15T17:55:48;6.20;1.00
9201;DHT22;4635;48.686;9.008;2023-02-15T17:58:44;6.10;1.00
9201;DHT22;4635;48.686;9.008;2023-02-15T18:01:21;6.00;1.00
9201;DHT22;4635;48.686;9.008;2023-02-15T18:04:11;5.90;1.00
9201;DHT22;4635;48.686;9.008;2023-02-15T18:06:57;5.80;69.20
9201;DHT22;4635;48.686;9.008;2023-02-15T18:09:44;5.70;99.90
9201;DHT22;4635;48.686;9.008;2023-02-15T18:12:34;5.60;99.90
9201;DHT22;4635;48.686;9.008;2023-02-15T18:15:10;5.50;99.90
9201;DHT22;4635;48.686;9.008;2023-02-15T18:17:45;5.40;1.00
9201;DHT22;4635;48.686;9.008;2023-02-15T18:20:29;5.50;1.00
9201;DHT22;4635;48.686;9.008;2023-02-15T18:23:22;5.30;1.00
9201;DHT22;4635;48.686;9.008;2023-02-15T18:26:26;5.20;1.00
9201;DHT22;4635;48.686;9.008;2023-02-15T18:29:23;5.10;1.00
9201;DHT22;4635;48.686;9.008;2023-02-15T18:32:17;5.00;99.90
9201;DHT22;4635;48.686;9.008;2023-02-15T18:34:57;4.90;99.90
9201;DHT22;4635;48.686;9.008;2023-02-15T18:37:31;4.80;1.00
9201;DHT22;4635;48.686;9.008;2023-02-15T18:40:03;4.70;1.00
9201;DHT22;4635;48.686;9.008;2023-02-15T18:42:41;4.60;1.00
9201;DHT22;4635;48.686;9.008;2023-02-15T18:45:19;4.50;99.90
9201;DHT22;4635;48.686;9.008;2023-02-15T18:47:59;4.40;1.00
9201;DHT22;4635;48.686;9.008;2023-02-15T18:50:45;4.30;99.90
9201;DHT22;4635;48.686;9.008;2023-02-15T18:53:33;4.30;1.00
9201;DHT22;4635;48.686;9.008;2023-02-15T18:56:08;4.20;99.90
9201;DHT22;4635;48.686;9.008;2023-02-15T18:58:48;4.10;1.00
9201;DHT22;4635;48.686;9.008;2023-02-15T19:01:47;4.10;1.00
9201;DHT22;4635;48.686;9.008;2023-02-15T19:04:32;4.10;99.90
9201;DHT22;4635;48.686;9.008;2023-02-15T19:07:07;3.90;99.90
9201;DHT22;4635;48.686;9.008;2023-02-15T19:09:41;3.90;1.00
9201;DHT22;4635;48.686;9.008;2023-02-15T19:12:15;3.80;69.10
9201;DHT22;4635;48.686;9.008;2023-02-15T19:15:02;3.70;1.00
9201;DHT22;4635;48.686;9.008;2023-02-15T19:17:40;3.60;1.00
9201;DHT22;4635;48.686;9.008;2023-02-15T19:20:17;3.60;99.90
9201;DHT22;4635;48.686;9.008;2023-02-15T19:22:53;3.60;99.90
9201;DHT22;4635;48.686;9.008;2023-02-15T19:25:26;3.60;1.00
9201;DHT22;4635;48.686;9.008;2023-02-15T19:27:59;3.50;99.90
9201;DHT22;4635;48.686;9.008;2023-02-15T19:30:45;3.40;99.90
9201;DHT22;4635;48.686;9.008;2023-02-15T19:33:30;3.40;1.00
9201;DHT22;4635;48.686;9.008;2023-02-15T19:36:05;3.30;1.00
9201;DHT22;4635;48.686;9.008;2023-02-15T19:38:35;3.20;99.90
9201;DHT22;4635;48.686;9.008;2023-02-15T19:41:30;3.20;1.00
9201;DHT22;4635;48.686;9.008;2023-02-15T19:44:15;3.20;99.90
9201;DHT22;4635;48.686;9.008;2023-02-15T19:46:57;3.10;1.00
9201;DHT22;4635;48.686;9.008;2023-02-15T19:49:49;3.30;1.00
9201;DHT22;4635;48.686;9.008;2023-02-15T19:52:34;3.10;1.00
9201;DHT22;4635;48.686;9.008;2023-02-15T19:55:28;3.00;99.90
9201;DHT22;4635;48.686;9.008;2023-02-15T19:58:17;2.90;1.00
9201;DHT22;4635;48.686;9.008;2023-02-15T20:00:58;2.90;1.00
9201;DHT22;4635;48.686;9.008;2023-02-15T20:03:34;2.90;1.00
9201;DHT22;4635;48.686;9.008;2023-02-15T20:06:15;3.00;1.00
9201;DHT22;4635;48.686;9.008;2023-02-15T20:08:45;3.00;1.00
9201;DHT22;4635;48.686;9.008;2023-02-15T20:11:15;2.80;1.00
9201;DHT22;4635;48.686;9.008;2023-02-15T20:13:49;2.80;1.00
9201;DHT22;4635;48.686;9.008;2023-02-15T20:16:22;2.70;1.00
9201;DHT22;4635;48.686;9.008;2023-02-15T20:18:55;2.60;1.00
9201;DHT22;4635;48.686;9.008;2023-02-15T20:21:41;2.60;1.00
9201;DHT22;4635;48.686;9.008;2023-02-15T20:24:28;2.70;99.90
9201;DHT22;4635;48.686;9.008;2023-02-15T20:27:00;2.60;1.00
9201;DHT22;4635;48.686;9.008;2023-02-15T20:29:40;2.50;1.00
9201;DHT22;4635;48.686;9.008;2023-02-15T20:32:27;2.50;1.00
9201;DHT22;4635;48.686;9.008;2023-02-15T20:35:04;2.80;1.00
9201;DHT22;4635;48.686;9.008;2023-02-15T20:37:48;2.40;1.00
9201;DHT22;4635;48.686;9.008;2023-02-15T20:40:22;2.30;99.90
9201;DHT22;4635;48.686;9.008;2023-02-15T20:42:57;2.20;1.00
9201;DHT22;4635;48.686;9.008;2023-02-15T20:45:28;2.30;1.00
9201;DHT22;4635;48.686;9.008;2023-02-15T20:47:58;2.20;37.40
9201;DHT22;4635;48.686;9.008;2023-02-15T20:50:32;2.20;99.90
9201;DHT22;4635;48.686;9.008;2023-02-15T20:53:09;2.30;1.00
9201;DHT22;4635;48.686;9.008;2023-02-15T20:55:42;2.40;99.90
9201;DHT22;4635;48.686;9.008;2023-02-15T20:58:20;2.30;92.40
9201;DHT22;4635;48.686;9.008;2023-02-15T21:00:53;2.20;1.00
9201;DHT22;4635;48.686;9.008;2023-02-15T21:03:27;2.20;1.00
9201;DHT22;4635;48.686;9.008;2023-02-15T21:05:58;2.10;1.00
9201;DHT22;4635;48.686;9.008;2023-02-15T21:08:30;2.10;1.00
9201;DHT22;4635;48.686;9.008;2023-02-15T21:10:59;2.00;1.00
9201;DHT22;4635;48.686;9.008;2023-02-15T21:13:39;2.00;1.00
9201;DHT22;4635;48.686;9.008;2023-02-15T21:16:10;2.00;1.00
9201;DHT22;4635;48.686;9.008;2023-02-15T21:18:43;2.20;1.00
9201;DHT22;4635;48.686;9.008;2023-02-15T21:21:17;1.80;1.00
9201;DHT22;4635;48.686;9.008;2023-02-15T21:23:50;1.80;99.90
9201;DHT22;4635;48.686;9.008;2023-02-15T21:26:21;1.70;1.00
9201;DHT22;4635;48.686;9.008;2023-02-15T21:28:51;1.70;99.90
9201;DHT22;4635;48.686;9.008;2023-02-15T21:31:28;1.60;1.00
9201;DHT22;4635;48.686;9.008;2023-02-15T21:33:58;1.60;1.00
9201;DHT22;4635;48.686;9.008;2023-02-15T21:36:29;1.50;1.00
9201;DHT22;4635;48.686;9.008;2023-02-15T21:39:02;1.50;1.00